createdAt,value
2022-11-24T00:00:24.723Z,3.59
2022-11-24T00:03:11.682Z,3.52
2022-11-24T00:06:07.400Z,3.62
2022-11-24T00:08:55.358Z,3.66
2022-11-24T00:11:42.181Z,3.68
2022-11-24T00:14:28.993Z,3.69
2022-11-24T00:17:15.777Z,3.74
2022-11-24T00:20:02.615Z,3.72
2022-11-24T00:22:49.389Z,3.73
2022-11-24T00:25:36.181Z,3.68
2022-11-24T00:28:23.003Z,3.59
2022-11-24T00:31:31.198Z,3.63
2022-11-24T00:34:18.079Z,3.77
2022-11-24T00:37:04.917Z,3.68
2022-11-24T00:39:51.688Z,3.63
2022-11-24T00:42:38.522Z,3.71
2022-11-24T00:45:25.324Z,3.82
2022-11-24T00:48:12.171Z,3.78
2022-11-24T00:51:10.225Z,3.82
2022-11-24T00:53:58.266Z,3.53
2022-11-24T00:56:45.143Z,3.66
2022-11-24T00:59:32.606Z,3.68
2022-11-24T01:02:19.492Z,3.55
2022-11-24T01:05:06.675Z,3.64
2022-11-24T01:07:53.487Z,3.68
2022-11-24T01:10:40.340Z,3.65
2022-11-24T01:13:27.135Z,3.57
2022-11-24T01:16:22.408Z,3.49
2022-11-24T01:19:09.225Z,3.43
2022-11-24T01:21:56.034Z,3.36
2022-11-24T01:24:42.912Z,3.24
2022-11-24T01:27:29.698Z,3.07
2022-11-24T01:30:16.694Z,2.90
2022-11-24T01:33:03.539Z,2.70
2022-11-24T01:35:50.290Z,2.61
2022-11-24T01:38:37.102Z,2.46
2022-11-24T01:41:25.222Z,2.47
2022-11-24T01:44:27.231Z,2.38
2022-11-24T01:47:38.535Z,2.31
2022-11-24T01:50:25.773Z,2.25
2022-11-24T01:53:14.381Z,2.20
2022-11-24T01:56:01.574Z,1.93
2022-11-24T01:58:51.251Z,2.01
2022-11-24T02:01:38.191Z,1.94
2022-11-24T02:04:30.652Z,1.81
2022-11-24T02:07:18.614Z,1.83
2022-11-24T02:10:16.151Z,1.83
2022-11-24T02:13:04.162Z,1.78
2022-11-24T02:15:53.097Z,1.76
2022-11-24T02:18:41.646Z,1.54
2022-11-24T02:21:28.462Z,1.59
2022-11-24T02:24:40.132Z,1.60
2022-11-24T02:27:27.090Z,1.40
2022-11-24T02:30:13.847Z,1.42
2022-11-24T02:33:01.034Z,1.42
2022-11-24T02:35:48.141Z,1.48
2022-11-24T02:38:35.937Z,1.17
2022-11-24T02:41:25.495Z,1.22
2022-11-24T02:44:16.355Z,1.07
2022-11-24T02:47:05.574Z,1.16
2022-11-24T02:49:52.438Z,1.10
2022-11-24T02:52:39.434Z,1.08
2022-11-24T02:55:26.576Z,1.16
2022-11-24T02:58:14.887Z,1.17
2022-11-24T03:01:01.656Z,1.03
2022-11-24T03:03:48.528Z,0.81
2022-11-24T03:06:35.291Z,0.92
2022-11-24T03:09:22.056Z,0.86
2022-11-24T03:12:08.855Z,0.85
2022-11-24T03:14:55.711Z,0.73
2022-11-24T03:17:42.792Z,0.71
2022-11-24T03:20:30.039Z,0.70
2022-11-24T03:23:16.864Z,0.63
2022-11-24T03:26:12.246Z,0.57
2022-11-24T03:28:59.004Z,0.64
2022-11-24T03:31:45.860Z,0.61
2022-11-24T03:34:33.022Z,0.70
2022-11-24T03:37:19.975Z,0.72
2022-11-24T03:40:07.196Z,0.71
2022-11-24T03:42:53.956Z,0.70
2022-11-24T03:45:47.810Z,0.68
2022-11-24T03:48:34.676Z,0.75
2022-11-24T03:51:21.426Z,0.67
2022-11-24T03:54:08.281Z,0.50
2022-11-24T03:56:55.112Z,0.47
2022-11-24T03:59:42.213Z,0.46
2022-11-24T04:02:29.068Z,0.35
2022-11-24T04:05:16.054Z,0.33
2022-11-24T04:08:05.406Z,0.28
2022-11-24T04:10:53.799Z,0.31
2022-11-24T04:13:40.542Z,0.35
2022-11-24T04:16:27.489Z,0.47
2022-11-24T04:19:14.599Z,0.48
2022-11-24T04:22:01.444Z,0.39
2022-11-24T04:24:48.199Z,0.89
2022-11-24T04:27:36.345Z,0.95
2022-11-24T04:30:24.584Z,0.94
2022-11-24T04:33:12.316Z,0.92
2022-11-24T04:35:59.153Z,0.95
2022-11-24T04:39:23.122Z,0.93
2022-11-24T04:41:52.809Z,0.89
2022-11-24T04:44:39.578Z,0.87
2022-11-24T04:47:27.452Z,0.86
2022-11-24T04:50:14.224Z,0.96
2022-11-24T04:53:00.984Z,1.00
2022-11-24T04:55:47.742Z,0.96
2022-11-24T04:58:35.059Z,0.91
2022-11-24T05:01:21.870Z,0.82
2022-11-24T05:04:14.575Z,0.86
2022-11-24T05:07:01.352Z,0.79
2022-11-24T05:10:07.023Z,0.73
2022-11-24T05:12:56.167Z,0.74
2022-11-24T05:15:43.084Z,0.72
2022-11-24T05:18:30.022Z,0.71
2022-11-24T05:21:16.904Z,0.71
2022-11-24T05:24:03.991Z,0.69
2022-11-24T05:26:50.770Z,0.61
2022-11-24T05:29:37.535Z,0.66
2022-11-24T05:32:24.378Z,0.60
2022-11-24T05:35:11.769Z,0.64
2022-11-24T05:37:58.906Z,0.73
2022-11-24T05:40:45.778Z,0.82
2022-11-24T05:43:32.566Z,0.82
2022-11-24T05:46:19.445Z,0.86
2022-11-24T05:49:06.252Z,0.77
2022-11-24T05:51:53.020Z,0.75
2022-11-24T05:54:39.918Z,0.79
2022-11-24T05:57:26.757Z,0.84
2022-11-24T06:00:14.929Z,0.68
2022-11-24T06:03:02.340Z,0.51
2022-11-24T06:05:49.232Z,0.67
2022-11-24T06:08:36.234Z,0.82
2022-11-24T06:11:23.053Z,0.95
2022-11-24T06:14:11.442Z,1.06
2022-11-24T06:16:58.544Z,1.10
2022-11-24T06:19:47.899Z,1.20
2022-11-24T06:22:34.875Z,1.30
2022-11-24T06:25:21.747Z,1.08
2022-11-24T06:28:08.580Z,1.14
2022-11-24T06:30:55.381Z,1.28
2022-11-24T06:33:42.208Z,1.23
2022-11-24T06:36:29.006Z,1.43
2022-11-24T06:39:15.840Z,1.54
2022-11-24T06:42:02.689Z,1.61
2022-11-24T06:44:49.690Z,1.71
2022-11-24T06:47:37.019Z,1.68
2022-11-24T06:50:24.629Z,1.75
2022-11-24T06:53:13.694Z,1.85
2022-11-24T06:56:01.985Z,1.89
2022-11-24T06:58:52.201Z,2.10
2022-11-24T07:01:39.069Z,2.46
2022-11-24T07:04:25.904Z,2.55
2022-11-24T07:07:12.839Z,2.63
2022-11-24T07:09:59.857Z,2.75
2022-11-24T07:12:46.776Z,2.82
2022-11-24T07:15:33.907Z,2.81
2022-11-24T07:18:20.691Z,2.88
2022-11-24T07:21:07.478Z,2.97
2022-11-24T07:23:56.097Z,3.05
2022-11-24T07:26:42.932Z,3.10
2022-11-24T07:29:29.723Z,3.22
2022-11-24T07:32:16.488Z,3.30
2022-11-24T07:35:03.621Z,3.35
2022-11-24T07:37:50.627Z,3.34
2022-11-24T07:40:37.454Z,3.36
2022-11-24T07:43:24.221Z,3.43
2022-11-24T07:46:14.036Z,3.45
2022-11-24T07:49:00.862Z,3.56
2022-11-24T07:51:47.656Z,3.59
2022-11-24T07:54:34.730Z,3.70
2022-11-24T07:57:21.803Z,3.79
2022-11-24T08:00:09.353Z,3.92
2022-11-24T08:02:56.280Z,3.83
2022-11-24T08:06:07.805Z,4.00
2022-11-24T08:08:49.846Z,4.12
2022-11-24T08:11:36.747Z,4.22
2022-11-24T08:14:23.772Z,4.69
2022-11-24T08:17:10.641Z,4.33
2022-11-24T08:19:57.548Z,4.18
2022-11-24T08:22:44.706Z,4.11
2022-11-24T08:25:32.764Z,4.18
2022-11-24T08:28:19.782Z,4.20
2022-11-24T08:31:14.919Z,4.28
2022-11-24T08:34:03.536Z,4.36
2022-11-24T08:36:51.689Z,4.41
2022-11-24T08:39:38.464Z,4.45
2022-11-24T08:42:25.290Z,4.34
2022-11-24T08:45:20.797Z,4.36
2022-11-24T08:48:08.879Z,4.44
2022-11-24T08:50:56.785Z,4.55
2022-11-24T08:53:44.010Z,4.77
2022-11-24T08:56:32.822Z,4.79
2022-11-24T08:59:19.652Z,4.66
2022-11-24T09:02:06.880Z,4.71
2022-11-24T09:04:53.770Z,4.84
2022-11-24T09:07:40.609Z,4.91
2022-11-24T09:10:27.488Z,5.07
2022-11-24T09:13:14.494Z,5.25
2022-11-24T09:16:06.358Z,5.66
2022-11-24T09:19:11.324Z,7.11
2022-11-24T09:21:58.176Z,7.12
2022-11-24T09:24:45.225Z,7.73
2022-11-24T09:27:32.479Z,9.58
2022-11-24T09:30:20.341Z,11.28
2022-11-24T09:33:07.102Z,11.89
2022-11-24T09:35:53.881Z,11.00
2022-11-24T09:38:41.153Z,11.50
2022-11-24T09:41:50.206Z,13.28
2022-11-24T09:44:36.984Z,14.29
2022-11-24T09:47:45.477Z,14.17
2022-11-24T09:50:35.906Z,10.66
2022-11-24T09:53:34.185Z,10.03
2022-11-24T09:56:23.465Z,11.88
2022-11-24T09:59:18.328Z,13.14
2022-11-24T10:02:12.003Z,13.55
2022-11-24T10:04:59.157Z,11.89
2022-11-24T10:08:14.551Z,9.90
2022-11-24T10:11:06.235Z,9.33
2022-11-24T10:14:05.986Z,11.32
2022-11-24T10:16:59.847Z,13.37
2022-11-24T10:20:19.121Z,14.78
2022-11-24T10:23:39.474Z,15.00
2022-11-24T10:27:09.926Z,15.42
2022-11-24T10:29:57.199Z,16.98
2022-11-24T10:32:47.585Z,16.61
2022-11-24T10:35:48.260Z,18.64
2022-11-24T10:38:43.786Z,16.23
2022-11-24T10:41:43.967Z,18.31
2022-11-24T10:44:30.839Z,15.39
2022-11-24T10:47:22.826Z,15.25
2022-11-24T10:50:32.578Z,15.09
2022-11-24T10:53:24.624Z,15.55
2022-11-24T10:56:11.572Z,15.64
2022-11-24T10:59:20.580Z,16.26
2022-11-24T11:02:32.619Z,17.68
2022-11-24T11:05:43.609Z,18.11
2022-11-24T11:08:32.432Z,14.62
2022-11-24T11:11:30.085Z,12.55
2022-11-24T11:14:35.746Z,15.13
2022-11-24T11:17:33.492Z,13.63
2022-11-24T11:20:32.398Z,16.25
2022-11-24T11:23:22.395Z,16.69
2022-11-24T11:26:34.335Z,18.71
2022-11-24T11:35:39.112Z,17.44
2022-11-24T11:38:33.756Z,14.14
2022-11-24T11:41:26.235Z,16.92
2022-11-24T11:44:43.826Z,15.88
2022-11-24T11:47:41.286Z,17.19
2022-11-24T11:54:04.215Z,17.12
2022-11-24T11:57:06.903Z,17.01
2022-11-24T12:00:18.127Z,15.35
2022-11-24T12:03:33.409Z,13.30
2022-11-24T12:06:38.603Z,12.20
2022-11-24T12:09:51.145Z,11.90
2022-11-24T12:12:46.476Z,10.51
2022-11-24T12:15:42.303Z,10.26
2022-11-24T12:18:57.529Z,9.77
2022-11-24T12:21:57.604Z,10.11
2022-11-24T12:24:53.384Z,9.71
2022-11-24T12:27:53.843Z,9.40
2022-11-24T12:30:51.302Z,9.17
2022-11-24T12:34:01.148Z,9.25
2022-11-24T12:37:25.668Z,9.21
2022-11-24T12:40:22.314Z,8.90
2022-11-24T12:43:32.622Z,9.02
2022-11-24T12:46:41.241Z,9.04
2022-11-24T12:49:46.312Z,9.20
2022-11-24T12:52:37.939Z,9.14
2022-11-24T12:55:25.597Z,8.74
2022-11-24T12:58:18.314Z,8.14
2022-11-24T13:01:28.116Z,8.64
2022-11-24T13:04:34.779Z,8.55
2022-11-24T13:07:43.758Z,8.83
2022-11-24T13:10:56.162Z,8.92
2022-11-24T13:14:02.228Z,9.29
2022-11-24T13:20:22.076Z,8.73
2022-11-24T13:23:24.286Z,8.76
2022-11-24T13:26:16.122Z,8.59
2022-11-24T13:29:23.859Z,9.02
2022-11-24T13:32:11.914Z,8.73
2022-11-24T13:35:04.651Z,8.72
2022-11-24T13:37:52.762Z,8.44
2022-11-24T13:40:49.849Z,8.71
2022-11-24T13:44:16.076Z,8.63
2022-11-24T13:47:24.552Z,8.51
2022-11-24T13:50:21.587Z,8.55
2022-11-24T13:53:15.624Z,8.38
2022-11-24T13:56:17.346Z,8.21
2022-11-24T13:59:18.691Z,8.38
2022-11-24T14:02:22.932Z,8.00
2022-11-24T14:05:14.630Z,8.07
2022-11-24T14:08:01.983Z,8.20
2022-11-24T14:10:48.856Z,8.48
2022-11-24T14:13:35.758Z,8.43
2022-11-24T14:16:24.241Z,8.11
2022-11-24T14:19:11.347Z,8.09
2022-11-24T14:21:58.415Z,8.13
2022-11-24T14:24:51.445Z,8.10
2022-11-24T14:27:39.116Z,7.96
2022-11-24T14:30:26.296Z,8.06
2022-11-24T14:33:13.427Z,7.93
2022-11-24T14:36:00.653Z,7.54
2022-11-24T14:38:47.735Z,7.37
2022-11-24T14:41:34.561Z,7.20
2022-11-24T14:44:59.267Z,7.25
2022-11-24T14:47:46.170Z,7.12
2022-11-24T14:50:33.072Z,6.95
2022-11-24T14:53:26.169Z,6.91
2022-11-24T14:56:19.233Z,6.67
2022-11-24T14:59:22.263Z,6.47
2022-11-24T15:02:48.350Z,6.18
2022-11-24T15:05:56.815Z,6.22
2022-11-24T15:08:47.014Z,6.20
2022-11-24T15:11:35.102Z,6.15
2022-11-24T15:14:38.854Z,5.92
2022-11-24T15:17:28.753Z,5.93
2022-11-24T15:20:41.764Z,5.62
2022-11-24T15:23:29.775Z,5.50
2022-11-24T15:26:16.575Z,5.37
2022-11-24T15:29:03.382Z,5.22
2022-11-24T15:31:52.804Z,4.96
2022-11-24T15:34:39.899Z,4.89
2022-11-24T15:37:30.065Z,4.77
2022-11-24T15:40:21.509Z,4.59
2022-11-24T15:43:35.199Z,4.54
2022-11-24T15:46:22.197Z,4.43
2022-11-24T15:49:09.048Z,4.37
2022-11-24T15:51:55.932Z,4.05
2022-11-24T15:54:42.691Z,4.13
2022-11-24T15:57:29.668Z,4.09
2022-11-24T16:00:22.392Z,3.99
2022-11-24T16:03:44.511Z,3.98
2022-11-24T16:06:24.763Z,3.95
2022-11-24T16:09:16.624Z,3.91
2022-11-24T16:12:03.830Z,3.82
2022-11-24T16:14:50.761Z,3.77
2022-11-24T16:17:37.689Z,3.68
2022-11-24T16:20:25.033Z,3.64
2022-11-24T16:23:12.037Z,3.48
2022-11-24T16:25:58.946Z,3.37
2022-11-24T16:28:45.965Z,3.25
2022-11-24T16:31:33.251Z,3.11
2022-11-24T16:34:20.145Z,3.12
2022-11-24T16:37:07.011Z,3.13
2022-11-24T16:39:53.844Z,3.03
2022-11-24T16:42:40.757Z,2.57
2022-11-24T16:45:27.662Z,2.61
2022-11-24T16:48:14.487Z,2.72
2022-11-24T16:51:06.411Z,2.70
2022-11-24T16:53:58.467Z,2.73
2022-11-24T16:56:45.277Z,2.70
2022-11-24T16:59:32.168Z,2.55
2022-11-24T17:02:19.176Z,2.43
2022-11-24T17:05:06.479Z,2.45
2022-11-24T17:07:53.358Z,2.42
2022-11-24T17:10:40.191Z,2.16
2022-11-24T17:13:27.005Z,2.28
2022-11-24T17:16:16.009Z,2.35
2022-11-24T17:19:03.219Z,2.36
2022-11-24T17:21:50.100Z,2.30
2022-11-24T17:24:37.101Z,2.24
2022-11-24T17:27:24.149Z,2.11
2022-11-24T17:30:12.138Z,2.15
2022-11-24T17:32:58.998Z,2.20
2022-11-24T17:35:45.833Z,2.11
2022-11-24T17:38:32.745Z,1.88
2022-11-24T17:41:20.068Z,1.66
2022-11-24T17:44:08.675Z,1.70
2022-11-24T17:46:55.491Z,1.72
2022-11-24T17:49:42.374Z,1.68
2022-11-24T17:52:32.206Z,1.68
2022-11-24T17:55:18.986Z,1.69
2022-11-24T17:58:05.812Z,1.52
2022-11-24T18:00:53.464Z,1.47
2022-11-24T18:03:41.474Z,1.56
2022-11-24T18:06:28.819Z,1.52
2022-11-24T18:09:15.693Z,1.50
2022-11-24T18:12:02.759Z,1.49
2022-11-24T18:14:49.529Z,1.40
2022-11-24T18:17:36.283Z,1.35
2022-11-24T18:20:23.131Z,1.36
2022-11-24T18:23:09.915Z,1.35
2022-11-24T18:26:00.821Z,1.19
2022-11-24T18:28:47.744Z,1.04
2022-11-24T18:31:35.951Z,0.93
2022-11-24T18:34:24.753Z,0.97
2022-11-24T18:37:13.584Z,0.96
2022-11-24T18:40:00.474Z,1.01
2022-11-24T18:42:47.316Z,0.97
2022-11-24T18:45:34.188Z,0.95
2022-11-24T18:48:22.711Z,0.95
2022-11-24T18:51:14.444Z,0.98
2022-11-24T18:54:03.034Z,1.03
2022-11-24T18:56:49.879Z,1.06
2022-11-24T18:59:36.893Z,1.03
2022-11-24T19:02:23.864Z,1.06
2022-11-24T19:05:10.694Z,0.99
2022-11-24T19:07:57.571Z,0.83
2022-11-24T19:10:45.292Z,0.76
2022-11-24T19:13:32.185Z,0.83
2022-11-24T19:16:20.341Z,0.86
2022-11-24T19:19:08.636Z,0.81
2022-11-24T19:21:55.460Z,0.61
2022-11-24T19:24:42.641Z,0.69
2022-11-24T19:27:29.706Z,0.75
2022-11-24T19:30:17.199Z,0.67
2022-11-24T19:33:04.033Z,0.58
2022-11-24T19:36:10.683Z,0.29
2022-11-24T19:38:58.604Z,0.45
2022-11-24T19:41:45.515Z,0.56
2022-11-24T19:44:32.596Z,0.39
2022-11-24T19:47:19.560Z,0.38
2022-11-24T19:50:10.418Z,0.38
2022-11-24T19:52:57.500Z,0.09
2022-11-24T19:55:45.453Z,-0.15
2022-11-24T19:58:32.740Z,0.11
2022-11-24T20:01:20.926Z,0.19
2022-11-24T20:04:10.388Z,0.14
2022-11-24T20:06:57.286Z,0.08
2022-11-24T20:09:44.144Z,0.11
2022-11-24T20:12:32.635Z,0.12
2022-11-24T20:15:20.755Z,-0.04
2022-11-24T20:18:07.667Z,-0.06
2022-11-24T20:20:54.540Z,-0.06
2022-11-24T20:23:42.219Z,-0.06
2022-11-24T20:26:32.016Z,-0.05
2022-11-24T20:29:19.616Z,-0.21
2022-11-24T20:32:06.518Z,-0.06
2022-11-24T20:34:53.452Z,-0.01
2022-11-24T20:37:40.291Z,0.03
2022-11-24T20:40:27.379Z,0.01
2022-11-24T20:43:14.775Z,0.00
2022-11-24T20:46:10.415Z,-0.02
2022-11-24T20:48:58.337Z,-0.21
2022-11-24T20:51:47.650Z,-0.21
2022-11-24T20:54:35.040Z,-0.26
2022-11-24T20:57:22.017Z,-0.33
2022-11-24T21:00:09.319Z,-0.19
2022-11-24T21:02:57.615Z,-0.16
2022-11-24T21:05:44.417Z,-0.06
2022-11-24T21:08:35.707Z,0.01
2022-11-24T21:11:23.751Z,0.06
2022-11-24T21:14:10.855Z,0.03
2022-11-24T21:16:57.788Z,0.08
2022-11-24T21:19:44.679Z,0.11
2022-11-24T21:22:31.517Z,0.02
2022-11-24T21:25:18.310Z,-0.12
2022-11-24T21:28:05.249Z,-0.02
2022-11-24T21:30:52.147Z,0.04
2022-11-24T21:33:44.816Z,0.18
2022-11-24T21:36:34.111Z,0.27
2022-11-24T21:39:20.996Z,0.31
2022-11-24T21:42:07.912Z,0.11
2022-11-24T21:44:54.821Z,0.25
2022-11-24T21:47:42.404Z,0.33
2022-11-24T21:50:29.247Z,0.36
2022-11-24T21:53:16.023Z,0.32
2022-11-24T21:56:05.689Z,0.17
2022-11-24T21:58:54.826Z,0.24
2022-11-24T22:01:41.765Z,0.29
2022-11-24T22:04:28.624Z,0.25
2022-11-24T22:07:15.482Z,0.47
2022-11-24T22:10:02.364Z,0.42
2022-11-24T22:12:49.153Z,0.49
2022-11-24T22:15:35.934Z,0.53
2022-11-24T22:18:22.745Z,0.42
2022-11-24T22:21:23.858Z,0.53
2022-11-24T22:24:10.907Z,0.50
2022-11-24T22:26:57.825Z,0.61
2022-11-24T22:29:44.685Z,0.55
2022-11-24T22:32:31.527Z,0.42
2022-11-24T22:35:18.356Z,0.63
2022-11-24T22:38:05.206Z,0.74
2022-11-24T22:40:52.591Z,0.62
2022-11-24T22:43:40.787Z,0.68
2022-11-24T22:46:29.947Z,0.77
2022-11-24T22:49:16.722Z,0.87
2022-11-24T22:52:03.573Z,0.70
2022-11-24T22:54:50.419Z,0.75
2022-11-24T22:57:37.238Z,0.76
2022-11-24T23:00:24.141Z,0.66
2022-11-24T23:03:11.009Z,0.42
2022-11-24T23:06:02.467Z,0.51
2022-11-24T23:08:50.450Z,0.59
2022-11-24T23:11:41.385Z,0.62
2022-11-24T23:14:28.812Z,0.73
2022-11-24T23:17:15.662Z,0.76
2022-11-24T23:20:02.569Z,0.71
2022-11-24T23:22:49.379Z,0.53
2022-11-24T23:25:36.215Z,0.58
2022-11-24T23:28:23.051Z,0.63
2022-11-24T23:31:12.578Z,0.49
2022-11-24T23:34:01.949Z,0.50
2022-11-24T23:36:48.754Z,0.59
2022-11-24T23:39:35.597Z,0.63
2022-11-24T23:42:22.519Z,0.52
2022-11-24T23:45:11.070Z,0.29
2022-11-24T23:47:57.966Z,0.24
2022-11-24T23:50:45.157Z,0.33
2022-11-24T23:53:33.258Z,0.43
2022-11-24T23:56:25.411Z,0.49
2022-11-24T23:59:12.488Z,0.56
